Time;durP1;ratioP1;P1;durP2;ratioP2;P2;SDS_P1;SDS_P2;PMS_P1;PMS_P2;Temp;Humidity;BMP_temperature;BMP_pressure;BME280_temperature;BME280_humidity;BME280_pressure;Samples;Min_cycle;Max_cycle;Signal;HPM_P1;HPM_P2
2022/09/06 00:01:43;;;;;;;8.45;2.78;;;21.10;91.80;;;;;;5072656;28;20049;-74
2022/09/06 00:04:09;;;;;;;10.35;2.78;;;21.10;91.80;;;;;;5073420;28;20666;-73
2022/09/06 00:06:35;;;;;;;7.13;2.70;;;21.00;91.80;;;;;;5073568;28;20090;-74
2022/09/06 00:09:01;;;;;;;7.95;2.95;;;21.00;91.90;;;;;;5073506;28;20120;-72
2022/09/06 00:11:27;;;;;;;9.27;3.20;;;21.00;91.90;;;;;;5073198;28;20051;-73
2022/09/06 00:13:53;;;;;;;5.85;3.30;;;20.90;91.90;;;;;;5073516;28;20036;-73
2022/09/06 00:16:22;;;;;;;6.68;3.05;;;20.90;91.90;;;;;;5073240;28;20052;-73
2022/09/06 00:18:51;;;;;;;7.75;2.85;;;20.90;92.00;;;;;;5071899;28;20094;-72
2022/09/06 00:21:23;;;;;;;10.15;3.38;;;20.80;92.00;;;;;;5073288;28;20152;-74
2022/09/06 00:23:49;;;;;;;9.43;3.28;;;20.80;92.20;;;;;;5073281;28;20046;-73
2022/09/06 00:26:15;;;;;;;5.65;3.10;;;20.70;92.30;;;;;;5072940;28;20052;-73
2022/09/06 00:28:41;;;;;;;8.45;3.17;;;20.70;92.20;;;;;;5073211;28;20043;-73
2022/09/06 00:31:08;;;;;;;5.78;3.17;;;20.60;92.30;;;;;;5073267;28;20677;-73
2022/09/06 00:33:34;;;;;;;8.18;3.55;;;20.60;92.50;;;;;;5073112;28;20087;-73
2022/09/06 00:36:00;;;;;;;10.32;3.33;;;20.50;92.70;;;;;;5072278;28;20044;-74
2022/09/06 00:38:25;;;;;;;7.45;3.22;;;20.40;92.80;;;;;;5073208;28;20106;-74
2022/09/06 00:40:51;;;;;;;10.20;3.45;;;20.30;92.80;;;;;;5073162;28;20076;-74
2022/09/06 00:43:17;;;;;;;10.77;3.13;;;20.30;92.80;;;;;;5073295;28;20155;-74
2022/09/06 00:45:42;;;;;;;9.82;3.40;;;20.20;93.00;;;;;;5072610;28;20048;-72
2022/09/06 00:48:08;;;;;;;14.23;3.35;;;20.20;93.00;;;;;;5072791;28;20040;-73
2022/09/06 00:50:34;;;;;;;10.00;3.75;;;20.20;93.10;;;;;;5069999;28;20057;-73
2022/09/06 00:53:00;;;;;;;8.15;3.30;;;20.10;93.10;;;;;;5072719;28;20052;-73
2022/09/06 00:55:26;;;;;;;7.28;3.20;;;20.10;93.20;;;;;;5072655;28;20039;-73
2022/09/06 00:57:52;;;;;;;5.18;2.97;;;20.10;93.40;;;;;;5071271;28;20045;-73
2022/09/06 01:00:19;;;;;;;5.80;3.30;;;20.00;93.60;;;;;;5072732;28;20051;-73
2022/09/06 01:02:45;;;;;;;11.38;3.28;;;20.00;93.60;;;;;;5072520;28;20051;-73
2022/09/06 01:05:12;;;;;;;5.82;3.53;;;20.00;93.60;;;;;;5072458;28;20085;-73
2022/09/06 01:07:44;;;;;;;5.20;3.70;;;19.90;93.70;;;;;;5070563;28;20059;-74
2022/09/06 01:10:51;;;;;;;7.75;3.50;;;19.80;93.90;;;;;;5072404;28;20142;-74
2022/09/06 01:13:30;;;;;;;9.60;3.65;;;19.70;94.10;;;;;;5049657;28;20678;-73
2022/09/06 01:16:17;;;;;;;7.45;3.47;;;19.70;94.30;;;;;;5049583;28;20068;-73
2022/09/06 01:19:05;;;;;;;7.38;3.30;;;19.70;94.10;;;;;;5033224;28;20148;-74
2022/09/06 01:21:53;;;;;;;12.13;4.40;;;19.70;94.30;;;;;;5049395;28;20144;-73
2022/09/06 01:24:37;;;;;;;9.50;3.20;;;19.70;94.30;;;;;;5049467;28;20045;-73
2022/09/06 01:27:14;;;;;;;4.63;3.20;;;19.70;94.20;;;;;;5049260;28;20521;-73
2022/09/06 01:29:57;;;;;;;6.82;3.50;;;19.70;94.30;;;;;;5049593;28;20288;-74
2022/09/06 01:32:31;;;;;;;11.13;3.63;;;19.60;94.60;;;;;;5049495;28;20523;-73
2022/09/06 01:35:08;;;;;;;6.07;3.55;;;19.60;94.40;;;;;;5049584;28;20060;-73
2022/09/06 01:37:33;;;;;;;7.35;3.42;;;19.60;94.60;;;;;;5048965;28;20456;-73
2022/09/06 01:39:59;;;;;;;5.50;3.08;;;19.60;94.50;;;;;;5049631;28;20063;-73
2022/09/06 01:42:27;;;;;;;8.05;3.40;;;19.60;94.60;;;;;;5049461;28;20049;-74
2022/09/06 01:45:06;;;;;;;6.38;3.25;;;19.60;94.80;;;;;;5049197;28;20670;-73
2022/09/06 01:47:37;;;;;;;7.78;3.75;;;19.50;94.90;;;;;;5049099;28;20064;-74
2022/09/06 01:50:14;;;;;;;5.40;3.13;;;19.50;94.70;;;;;;5044163;28;20051;-73
2022/09/06 01:53:20;;;;;;;4.75;3.60;;;19.50;94.90;;;;;;5071231;28;20441;-73
2022/09/06 01:56:02;;;;;;;8.00;3.42;;;19.50;95.20;;;;;;5071289;28;20044;-73
2022/09/06 01:59:00;;;;;;;6.07;3.30;;;19.50;94.70;;;;;;5071417;28;20483;-73
2022/09/06 02:01:41;;;;;;;7.78;3.38;;;19.50;95.00;;;;;;5062184;28;20048;-74
2022/09/06 02:04:21;;;;;;;8.73;3.25;;;19.50;94.90;;;;;;5070377;28;20059;-74
2022/09/06 02:06:53;;;;;;;7.43;3.90;;;19.50;94.90;;;;;;5070249;28;20052;-73
2022/09/06 02:09:23;;;;;;;11.00;3.47;;;19.50;94.80;;;;;;5069805;28;20677;-73
2022/09/06 02:11:57;;;;;;;8.00;3.30;;;19.50;94.80;;;;;;5070283;28;20371;-73
2022/09/06 02:14:38;;;;;;;8.73;3.42;;;19.40;94.80;;;;;;5069556;28;20083;-73
2022/09/06 02:17:08;;;;;;;8.32;3.70;;;19.40;94.80;;;;;;5069421;28;20044;-73
2022/09/06 02:19:46;;;;;;;7.97;3.85;;;19.40;94.80;;;;;;5070887;28;20123;-73
2022/09/06 02:22:15;;;;;;;8.98;3.78;;;19.40;95.00;;;;;;5070682;28;20080;-73
2022/09/06 02:24:44;;;;;;;7.30;3.33;;;19.30;94.90;;;;;;5069646;28;20094;-73
2022/09/06 02:27:11;;;;;;;12.23;3.67;;;19.40;94.90;;;;;;5070689;28;20516;-73
2022/09/06 02:29:36;;;;;;;7.53;3.65;;;19.40;94.90;;;;;;5070893;28;20769;-73
2022/09/06 02:32:13;;;;;;;6.63;3.40;;;19.40;94.90;;;;;;5070840;28;20040;-74
2022/09/06 02:34:40;;;;;;;6.40;3.97;;;19.40;95.00;;;;;;5070859;28;20131;-74
2022/09/06 02:37:07;;;;;;;5.35;3.92;;;19.40;95.00;;;;;;5069325;28;20049;-73
2022/09/06 02:39:33;;;;;;;6.78;3.97;;;19.30;94.90;;;;;;5070598;28;20048;-73
2022/09/06 02:42:00;;;;;;;11.27;4.25;;;19.30;95.00;;;;;;5070007;28;20105;-74
2022/09/06 02:44:26;;;;;;;5.47;3.58;;;19.30;95.30;;;;;;5070714;28;20051;-73
2022/09/06 02:46:51;;;;;;;8.70;3.47;;;19.30;95.20;;;;;;5069601;28;20052;-73
2022/09/06 02:49:17;;;;;;;7.55;3.97;;;19.30;95.10;;;;;;5070124;28;20496;-73
2022/09/06 02:51:42;;;;;;;7.80;3.92;;;19.30;95.20;;;;;;5070077;28;20088;-73
2022/09/06 02:54:08;;;;;;;6.97;3.65;;;19.30;95.30;;;;;;5070222;28;20617;-74
2022/09/06 02:56:35;;;;;;;6.13;3.67;;;19.20;95.50;;;;;;5069632;28;20051;-73
2022/09/06 02:59:04;;;;;;;11.57;4.05;;;19.20;95.30;;;;;;5070418;28;20059;-73
2022/09/06 03:01:30;;;;;;;9.75;3.53;;;19.20;95.40;;;;;;5070874;28;20052;-74
2022/09/06 03:03:56;;;;;;;4.30;3.53;;;19.10;95.40;;;;;;5070681;28;20504;-72
2022/09/06 03:06:22;;;;;;;7.65;3.53;;;19.10;95.30;;;;;;5069944;28;20052;-73
2022/09/06 03:08:48;;;;;;;9.80;3.90;;;19.10;95.30;;;;;;5070061;28;20522;-73
2022/09/06 03:11:14;;;;;;;9.25;3.75;;;19.10;95.30;;;;;;5069623;28;20088;-73
2022/09/06 03:13:39;;;;;;;8.65;4.40;;;19.10;95.40;;;;;;5069017;28;20045;-73
2022/09/06 03:16:05;;;;;;;8.57;3.70;;;19.00;95.30;;;;;;5070576;28;20045;-73
2022/09/06 03:18:31;;;;;;;8.02;3.78;;;19.00;95.40;;;;;;5070324;28;20499;-74
2022/09/06 03:20:57;;;;;;;8.15;3.85;;;19.00;95.40;;;;;;5070102;28;20059;-74
2022/09/06 03:23:25;;;;;;;9.10;4.05;;;19.00;95.40;;;;;;5069527;28;20129;-75
2022/09/06 03:25:51;;;;;;;6.35;3.53;;;19.00;95.40;;;;;;5068882;28;20052;-73
2022/09/06 03:28:17;;;;;;;5.80;3.92;;;19.00;95.40;;;;;;5069290;28;20681;-73
2022/09/06 03:30:47;;;;;;;9.57;3.78;;;19.00;95.40;;;;;;5068474;28;20097;-74
2022/09/06 03:33:13;;;;;;;8.55;4.20;;;18.90;95.50;;;;;;5070192;28;20037;-73
2022/09/06 03:35:40;;;;;;;7.22;4.40;;;18.90;95.50;;;;;;5068884;28;20061;-73
2022/09/06 03:38:06;;;;;;;6.90;3.90;;;18.90;95.40;;;;;;5070252;28;20053;-73
2022/09/06 03:40:32;;;;;;;8.65;3.75;;;18.90;95.40;;;;;;5067308;28;20063;-73
2022/09/06 03:42:57;;;;;;;5.25;3.75;;;18.90;95.40;;;;;;5069607;28;20055;-72
2022/09/06 03:45:23;;;;;;;4.80;3.42;;;18.90;95.50;;;;;;5070046;28;20519;-73
2022/09/06 03:47:49;;;;;;;6.22;4.00;;;18.90;95.60;;;;;;5070341;28;20121;-73
2022/09/06 03:50:14;;;;;;;9.27;4.57;;;18.80;95.50;;;;;;5069840;28;20060;-74
2022/09/06 03:52:40;;;;;;;7.20;4.20;;;18.80;95.50;;;;;;5069782;28;20052;-74
2022/09/06 03:55:06;;;;;;;10.13;4.50;;;18.90;95.60;;;;;;5069841;28;20051;-77
2022/09/06 03:57:32;;;;;;;9.40;4.00;;;18.90;95.70;;;;;;5069670;28;20051;-72
2022/09/06 03:59:58;;;;;;;8.50;3.95;;;18.90;95.60;;;;;;5068061;28;20801;-74
2022/09/06 04:02:23;;;;;;;6.63;4.10;;;19.10;95.70;;;;;;5068927;28;20510;-74
2022/09/06 04:04:49;;;;;;;11.93;4.30;;;18.90;95.70;;;;;;5070068;28;20051;-73
2022/09/06 04:07:14;;;;;;;7.20;3.90;;;18.90;95.60;;;;;;5069931;28;20072;-73
2022/09/06 04:09:40;;;;;;;7.35;4.10;;;18.90;95.70;;;;;;5068813;28;20581;-73
2022/09/06 04:12:06;;;;;;;7.65;4.07;;;18.90;95.70;;;;;;5068950;28;20055;-74
2022/09/06 04:14:31;;;;;;;6.78;3.70;;;18.90;95.70;;;;;;5069211;28;20059;-74
2022/09/06 04:16:57;;;;;;;6.90;4.53;;;18.80;95.70;;;;;;5069970;28;20104;-74
2022/09/06 04:19:22;;;;;;;8.23;4.15;;;18.80;95.70;;;;;;5069912;28;20102;-73
2022/09/06 04:21:48;;;;;;;7.78;3.80;;;18.80;95.80;;;;;;5070244;28;20392;-72
2022/09/06 04:24:14;;;;;;;11.80;4.10;;;18.80;95.80;;;;;;5069421;28;20052;-73
2022/09/06 04:26:40;;;;;;;8.50;4.38;;;18.80;95.90;;;;;;5071651;28;20040;-74
2022/09/06 04:29:05;;;;;;;6.95;3.90;;;18.80;95.90;;;;;;5071908;28;20418;-74
2022/09/06 04:31:31;;;;;;;8.70;4.15;;;18.80;96.00;;;;;;5072650;28;20056;-73
2022/09/06 04:33:57;;;;;;;5.93;4.45;;;18.80;96.10;;;;;;5071695;28;20408;-75
2022/09/06 04:36:22;;;;;;;10.98;5.30;;;18.80;96.30;;;;;;5072850;28;20430;-73
2022/09/06 04:38:48;;;;;;;7.72;4.88;;;18.80;96.20;;;;;;5073077;28;20090;-74
2022/09/06 04:41:15;;;;;;;11.93;4.55;;;18.80;96.50;;;;;;5072587;28;20454;-73
2022/09/06 04:43:41;;;;;;;6.13;4.45;;;18.80;96.60;;;;;;5072639;28;20112;-74
2022/09/06 04:46:28;;;;;;;8.55;5.10;;;18.80;96.70;;;;;;5072097;28;20119;-73
2022/09/06 04:48:55;;;;;;;6.68;4.68;;;18.70;97.10;;;;;;5071186;28;20052;-74
2022/09/06 04:51:21;;;;;;;7.32;5.10;;;18.70;97.10;;;;;;5071074;28;20056;-73
2022/09/06 04:53:47;;;;;;;12.27;4.95;;;18.70;97.30;;;;;;5072373;28;20514;-73
2022/09/06 04:56:16;;;;;;;7.15;5.47;;;18.70;97.80;;;;;;5072277;28;20048;-73
2022/09/06 04:58:45;;;;;;;6.15;5.10;;;18.60;97.90;;;;;;5072221;28;20040;-73
2022/09/06 05:01:10;;;;;;;13.82;5.10;;;18.60;97.90;;;;;;5072548;28;20127;-72
2022/09/06 05:03:36;;;;;;;9.48;4.93;;;18.60;98.10;;;;;;5072001;28;20454;-72
2022/09/06 05:06:10;;;;;;;6.13;4.75;;;18.60;98.30;;;;;;5072136;28;20053;-73
2022/09/06 05:08:40;;;;;;;9.52;5.40;;;18.60;98.50;;;;;;5072448;28;20446;-73
2022/09/06 05:11:07;;;;;;;7.00;5.20;;;18.50;98.80;;;;;;5052606;28;20048;-72
2022/09/06 05:13:34;;;;;;;8.38;5.28;;;18.50;98.70;;;;;;5058522;28;20044;-72
2022/09/06 05:16:05;;;;;;;7.95;5.05;;;18.50;98.70;;;;;;5070898;28;20040;-72
2022/09/06 05:18:30;;;;;;;6.35;5.25;;;18.50;98.80;;;;;;5071168;28;20080;-72
2022/09/06 05:20:57;;;;;;;7.43;5.18;;;18.50;99.00;;;;;;5070893;28;20074;-72
2022/09/06 05:23:23;;;;;;;10.10;5.45;;;18.50;99.00;;;;;;5072211;28;20094;-71
2022/09/06 05:25:49;;;;;;;7.85;5.70;;;18.40;99.00;;;;;;5072069;28;20135;-71
2022/09/06 05:28:15;;;;;;;7.85;5.53;;;18.40;99.20;;;;;;5072092;28;20156;-71
2022/09/06 05:30:41;;;;;;;8.15;5.85;;;18.40;99.80;;;;;;5071792;28;20473;-71
2022/09/06 05:33:08;;;;;;;8.38;5.50;;;18.40;99.90;;;;;;5071372;28;20044;-72
2022/09/06 05:35:33;;;;;;;10.27;6.03;;;18.50;99.90;;;;;;5071940;28;20071;-72
2022/09/06 05:37:59;;;;;;;12.68;6.35;;;18.40;99.90;;;;;;5070206;28;20602;-72
2022/09/06 05:40:25;;;;;;;7.63;5.95;;;18.30;99.90;;;;;;5071276;28;20048;-71
2022/09/06 05:42:51;;;;;;;7.95;6.13;;;18.30;99.90;;;;;;5071434;28;20048;-72
2022/09/06 05:45:16;;;;;;;7.07;5.80;;;18.30;99.90;;;;;;5070508;28;20048;-72
2022/09/06 05:47:42;;;;;;;9.02;6.18;;;18.30;99.90;;;;;;5071637;28;20075;-72
2022/09/06 05:50:08;;;;;;;11.00;5.93;;;18.30;99.90;;;;;;5071147;28;20492;-72
2022/09/06 05:52:34;;;;;;;8.30;6.10;;;18.30;99.90;;;;;;5069826;28;20045;-73
2022/09/06 05:55:00;;;;;;;9.00;6.78;;;18.20;99.90;;;;;;5071678;28;20059;-72
2022/09/06 05:57:26;;;;;;;9.95;6.43;;;18.30;99.90;;;;;;5071528;28;20052;-72
2022/09/06 05:59:55;;;;;;;11.30;6.55;;;18.30;99.90;;;;;;5071778;28;20170;-72
2022/09/06 06:02:21;;;;;;;9.43;6.72;;;18.30;99.90;;;;;;5071050;28;20733;-72
2022/09/06 06:04:47;;;;;;;7.93;6.35;;;18.30;99.90;;;;;;5069896;28;20044;-71
2022/09/06 06:07:13;;;;;;;8.90;6.18;;;18.20;99.90;;;;;;5071389;28;20048;-72
2022/09/06 06:09:39;;;;;;;11.43;6.82;;;18.20;99.90;;;;;;5071341;28;20045;-72
2022/09/06 06:12:05;;;;;;;10.32;7.22;;;18.30;99.90;;;;;;5070716;28;20052;-73
2022/09/06 06:14:31;;;;;;;9.13;6.35;;;18.20;99.90;;;;;;5070656;28;20044;-72
2022/09/06 06:16:57;;;;;;;12.63;6.90;;;18.20;99.90;;;;;;5069839;28;20053;-72
2022/09/06 06:19:22;;;;;;;12.98;7.38;;;18.20;99.90;;;;;;5071232;28;20033;-74
2022/09/06 06:21:48;;;;;;;9.35;7.60;;;18.30;99.90;;;;;;5070045;28;20123;-72
2022/09/06 06:24:13;;;;;;;12.02;7.32;;;18.20;99.90;;;;;;5052753;28;20044;-72
2022/09/06 06:26:39;;;;;;;12.95;7.40;;;18.30;99.90;;;;;;5069426;28;20123;-72
2022/09/06 06:29:08;;;;;;;20.42;7.30;;;18.30;99.90;;;;;;5070891;28;20033;-71
2022/09/06 06:31:35;;;;;;;11.00;7.80;;;18.30;99.90;;;;;;5070910;28;20087;-73
2022/09/06 06:34:04;;;;;;;11.65;7.20;;;18.30;99.90;;;;;;5068811;28;20048;-71
2022/09/06 06:36:32;;;;;;;12.13;7.85;;;18.30;99.90;;;;;;5070387;28;20056;-71
2022/09/06 06:38:59;;;;;;;11.07;7.68;;;18.30;99.90;;;;;;5070575;28;20049;-71
2022/09/06 06:45:06;;;;;;;10.82;7.10;;;18.40;99.90;;;;;;5312814;22;20088;-71
2022/09/06 06:47:31;;;;;;;13.73;7.60;;;18.40;99.90;;;;;;5025894;28;20041;-73
2022/09/06 06:49:57;;;;;;;10.50;7.53;;;18.50;99.90;;;;;;5029573;28;20144;-73
2022/09/06 06:52:23;;;;;;;11.35;7.82;;;18.50;99.90;;;;;;5029251;28;20052;-71
2022/09/06 06:54:48;;;;;;;10.32;7.22;;;18.50;99.90;;;;;;5012231;28;20041;-72
2022/09/06 06:57:14;;;;;;;9.82;8.10;;;18.50;99.90;;;;;;5011952;28;20622;-72
2022/09/06 06:59:40;;;;;;;10.73;7.90;;;18.60;99.90;;;;;;5012038;28;20041;-73
2022/09/06 07:02:06;;;;;;;12.63;7.90;;;18.50;99.90;;;;;;5029922;28;20041;-72
2022/09/06 07:04:31;;;;;;;12.15;7.90;;;18.60;99.90;;;;;;5012193;28;20493;-72
2022/09/06 07:06:57;;;;;;;9.60;7.32;;;18.50;99.90;;;;;;5029517;28;20049;-72
2022/09/06 07:09:23;;;;;;;12.27;7.38;;;18.60;99.90;;;;;;5029365;28;20492;-72
2022/09/06 07:11:49;;;;;;;10.10;7.22;;;18.60;99.90;;;;;;5011918;28;20053;-72
2022/09/06 07:14:15;;;;;;;9.63;7.55;;;18.60;99.90;;;;;;5025316;28;20044;-72
2022/09/06 07:16:42;;;;;;;11.63;8.07;;;18.60;99.90;;;;;;5030017;28;20054;-73
2022/09/06 07:19:07;;;;;;;9.25;7.65;;;18.60;99.90;;;;;;5021985;28;20392;-72
2022/09/06 07:21:33;;;;;;;15.50;7.97;;;18.60;99.90;;;;;;5007982;28;20115;-72
2022/09/06 07:23:59;;;;;;;8.75;7.85;;;18.70;99.90;;;;;;5029282;28;20033;-72
2022/09/06 07:26:28;;;;;;;11.68;8.38;;;18.70;99.90;;;;;;5011998;28;20072;-72
2022/09/06 07:28:58;;;;;;;11.30;7.72;;;18.70;99.90;;;;;;5007454;28;20050;-73
2022/09/06 07:31:26;;;;;;;12.90;8.38;;;18.80;99.90;;;;;;5029748;28;20567;-72
2022/09/06 07:33:52;;;;;;;10.02;7.82;;;18.90;99.90;;;;;;5011574;28;20056;-72
2022/09/06 07:36:17;;;;;;;9.43;7.45;;;19.00;99.90;;;;;;5029926;28;20053;-73
2022/09/06 07:38:48;;;;;;;11.02;8.50;;;19.10;99.90;;;;;;5029597;28;20062;-73
2022/09/06 07:41:14;;;;;;;13.30;8.40;;;19.10;99.90;;;;;;5029644;28;20528;-73
2022/09/06 07:43:40;;;;;;;9.98;7.88;;;19.20;99.90;;;;;;5011911;28;20113;-73
2022/09/06 07:46:08;;;;;;;11.50;8.23;;;19.30;99.90;;;;;;5029525;28;20053;-72
2022/09/06 07:48:36;;;;;;;11.20;8.13;;;19.50;99.90;;;;;;5029576;28;20132;-72
2022/09/06 07:51:16;;;;;;;15.93;8.52;;;19.60;99.90;;;;;;5011672;28;20061;-72
2022/09/06 07:53:46;;;;;;;11.27;8.80;;;19.70;99.90;;;;;;5011340;28;20064;-72
2022/09/06 07:56:12;;;;;;;13.23;8.38;;;19.80;99.90;;;;;;5027659;28;20136;-73
2022/09/06 07:58:38;;;;;;;12.10;8.55;;;19.90;99.90;;;;;;5029503;28;20399;-72
2022/09/06 08:01:30;;;;;;;11.57;9.00;;;19.90;99.90;;;;;;5014281;28;20373;-72
2022/09/06 08:04:25;;;;;;;12.63;8.48;;;19.90;99.90;;;;;;5031530;28;20502;-71
2022/09/06 08:06:51;;;;;;;12.60;8.40;;;20.00;99.90;;;;;;4945106;28;20078;-71
2022/09/06 08:09:17;;;;;;;9.63;8.40;;;20.20;99.90;;;;;;4935399;29;20047;-73
2022/09/06 08:11:42;;;;;;;11.90;7.57;;;20.30;99.90;;;;;;4951699;29;20051;-72
2022/09/06 08:14:09;;;;;;;13.80;7.38;;;20.50;99.90;;;;;;4936222;29;20125;-73
2022/09/06 08:16:36;;;;;;;10.93;8.05;;;20.70;99.90;;;;;;4934982;29;20055;-74
2022/09/06 08:19:07;;;;;;;13.30;8.10;;;20.90;99.90;;;;;;4936246;29;20175;-74
2022/09/06 08:21:33;;;;;;;10.02;7.70;;;21.20;99.90;;;;;;4951850;29;20375;-73
2022/09/06 08:24:02;;;;;;;10.07;8.00;;;21.40;99.90;;;;;;4935699;29;20074;-73
2022/09/06 08:26:29;;;;;;;12.25;8.32;;;21.60;99.90;;;;;;4951814;29;20506;-75
2022/09/06 08:29:05;;;;;;;13.75;8.70;;;21.90;99.90;;;;;;4952274;29;20418;-73
2022/09/06 08:31:32;;;;;;;10.20;7.70;;;22.10;99.90;;;;;;4951864;29;20063;-73
2022/09/06 08:33:59;;;;;;;11.13;7.70;;;22.40;99.90;;;;;;4952171;29;20459;-75
2022/09/06 08:36:29;;;;;;;10.60;7.22;;;22.60;99.90;;;;;;4952033;29;20078;-76
2022/09/06 08:38:59;;;;;;;10.32;7.47;;;22.90;99.90;;;;;;4951375;29;20051;-73
2022/09/06 08:41:39;;;;;;;12.70;8.13;;;23.00;99.90;;;;;;4952000;29;20520;-72
2022/09/06 08:44:15;;;;;;;9.90;7.82;;;23.30;99.90;;;;;;5019155;28;20053;-72
2022/09/06 08:46:49;;;;;;;9.07;6.93;;;23.50;99.90;;;;;;5014450;28;20053;-74
2022/09/06 08:49:15;;;;;;;12.80;8.30;;;23.60;99.90;;;;;;5014695;28;20058;-72
2022/09/06 08:52:21;;;;;;;13.82;7.32;;;23.80;99.50;;;;;;5031882;28;20503;-73
2022/09/06 08:54:58;;;;;;;11.77;7.32;;;24.00;99.50;;;;;;5014354;28;20447;-76
2022/09/06 08:57:56;;;;;;;14.50;7.35;;;24.20;99.70;;;;;;5013949;28;20053;-74
2022/09/06 09:00:22;;;;;;;14.30;8.13;;;24.40;99.00;;;;;;4954534;28;20118;-74
2022/09/06 09:03:17;;;;;;;14.43;7.32;;;24.50;98.10;;;;;;4970339;28;20425;-72
2022/09/06 09:05:45;;;;;;;;;;;24.70;98.30;;;;;;4971101;28;20109;-73
2022/09/06 09:08:45;;;;;;;9.93;7.47;;;24.70;98.00;;;;;;4970543;28;20385;-73
2022/09/06 09:11:18;;;;;;;9.30;7.93;;;24.70;97.80;;;;;;4969753;28;20090;-73
2022/09/06 09:14:08;;;;;;;14.30;7.67;;;24.50;97.60;;;;;;4953455;28;20101;-73
2022/09/06 09:16:34;;;;;;;13.85;7.68;;;24.50;97.60;;;;;;4970393;28;20161;-73
2022/09/06 09:19:02;;;;;;;10.55;8.30;;;24.70;97.50;;;;;;4970413;28;20050;-73
2022/09/06 09:21:32;;;;;;;12.98;7.28;;;24.80;97.30;;;;;;4954472;28;20494;-72
2022/09/06 09:24:02;;;;;;;8.20;7.40;;;24.90;97.40;;;;;;4970049;28;20509;-73
2022/09/06 09:26:45;;;;;;;13.20;7.03;;;25.30;97.20;;;;;;4970122;28;20085;-72
2022/09/06 09:29:13;;;;;;;12.80;9.18;;;25.40;96.80;;;;;;4953570;28;20058;-73
2022/09/06 09:31:46;;;;;;;9.80;7.57;;;25.70;96.60;;;;;;4970116;28;20068;-71
2022/09/06 09:34:25;;;;;;;12.07;7.60;;;25.80;96.20;;;;;;4950381;29;20047;-73
2022/09/06 09:37:22;;;;;;;10.57;6.63;;;26.00;96.30;;;;;;4965969;28;20057;-75
2022/09/06 09:39:51;;;;;;;8.60;7.18;;;26.20;95.30;;;;;;5011661;28;20532;-75
2022/09/06 09:42:36;;;;;;;9.93;6.60;;;26.20;95.60;;;;;;4994329;28;20054;-73
2022/09/06 09:45:24;;;;;;;14.85;6.72;;;26.40;95.70;;;;;;5028822;28;20057;-75
2022/09/06 09:47:50;;;;;;;9.90;6.53;;;26.50;94.50;;;;;;5013230;28;20106;-77
2022/09/06 09:50:25;;;;;;;8.13;6.47;;;26.50;95.30;;;;;;5013576;28;20053;-74
2022/09/06 09:52:50;;;;;;;11.50;5.50;;;26.80;95.10;;;;;;5031236;28;20045;-74
2022/09/06 09:55:22;;;;;;;11.48;6.13;;;26.90;94.80;;;;;;5013100;28;20402;-74
2022/09/06 09:57:49;;;;;;;11.45;6.55;;;27.00;94.40;;;;;;5030984;28;20056;-73
2022/09/06 10:00:38;;;;;;;8.18;5.20;;;27.10;94.30;;;;;;5030977;28;20488;-75
2022/09/06 10:03:24;;;;;;;10.25;6.00;;;27.30;93.30;;;;;;5013110;28;20065;-76
2022/09/06 10:05:59;;;;;;;9.20;5.40;;;27.50;93.90;;;;;;5013266;28;20588;-75
2022/09/06 10:08:29;;;;;;;8.60;5.20;;;27.70;93.20;;;;;;5030642;28;20045;-73
2022/09/06 10:10:56;;;;;;;9.40;4.93;;;27.80;93.50;;;;;;5001371;28;20053;-74
2022/09/06 10:13:29;;;;;;;9.40;4.40;;;27.90;92.80;;;;;;5011146;28;20050;-74
2022/09/06 10:15:57;;;;;;;10.93;4.05;;;27.90;91.70;;;;;;5012125;28;20232;-73
2022/09/06 10:18:34;;;;;;;7.18;4.38;;;28.00;92.30;;;;;;4992951;28;20508;-76
2022/09/06 10:21:00;;;;;;;6.38;3.60;;;28.20;92.00;;;;;;5010921;28;20038;-74
2022/09/06 10:23:34;;;;;;;6.38;3.80;;;28.30;91.90;;;;;;4993455;28;20053;-75
2022/09/06 10:26:20;;;;;;;6.50;4.10;;;28.30;91.70;;;;;;5010119;28;20432;-73
2022/09/06 10:28:46;;;;;;;8.57;4.10;;;28.50;91.30;;;;;;5012249;28;20136;-74
2022/09/06 10:31:46;;;;;;;6.20;4.40;;;28.60;91.90;;;;;;5012856;28;20140;-78
2022/09/06 10:34:32;;;;;;;6.00;4.18;;;28.80;91.70;;;;;;5030026;28;20049;-74
2022/09/06 10:37:00;;;;;;;12.63;4.72;;;29.00;91.20;;;;;;5030456;28;20046;-74
2022/09/06 10:39:54;;;;;;;10.35;5.20;;;29.20;91.30;;;;;;5012383;28;20544;-75
2022/09/06 10:42:49;;;;;;;11.80;5.20;;;29.30;91.40;;;;;;5030563;28;20050;-74
2022/09/06 10:45:28;;;;;;;;;;;29.20;90.60;;;;;;5030976;28;20397;-74
2022/09/06 10:48:30;;;;;;;13.02;5.28;;;29.10;90.60;;;;;;5029716;28;20020;-73
2022/09/06 10:51:36;;;;;;;10.55;6.10;;;29.20;91.10;;;;;;4933493;29;20122;-76
2022/09/06 10:54:10;;;;;;;10.02;6.53;;;29.30;90.40;;;;;;4949554;28;20075;-74
2022/09/06 10:56:40;;;;;;;8.70;5.65;;;29.50;91.00;;;;;;4949544;29;20047;-74
2022/09/06 10:59:11;;;;;;;11.50;6.60;;;29.50;90.90;;;;;;4955323;28;20126;-73
2022/09/06 11:02:11;;;;;;;9.30;6.28;;;29.60;90.90;;;;;;4952900;28;20059;-75
2022/09/06 11:04:40;;;;;;;15.10;5.88;;;29.60;90.90;;;;;;4952506;28;20046;-73
2022/09/06 11:07:12;;;;;;;10.50;7.00;;;29.70;90.60;;;;;;4968460;28;20055;-75
2022/09/06 11:09:43;;;;;;;15.77;7.07;;;29.80;90.60;;;;;;4968248;28;20057;-74
2022/09/06 11:12:23;;;;;;;7.22;5.82;;;29.70;90.10;;;;;;4968656;28;20061;-74
2022/09/06 11:14:50;;;;;;;9.48;6.00;;;29.80;90.30;;;;;;4965317;28;20055;-72
2022/09/06 11:17:33;;;;;;;13.80;5.78;;;29.70;90.40;;;;;;4949224;29;20047;-75
2022/09/06 11:20:16;;;;;;;10.30;6.07;;;29.80;90.00;;;;;;4952101;28;20129;-78
2022/09/06 11:23:07;;;;;;;12.95;6.07;;;29.80;90.00;;;;;;4968591;28;20134;-73
2022/09/06 11:25:54;;;;;;;12.68;5.75;;;29.80;90.00;;;;;;4952597;28;20154;-74
2022/09/06 11:28:29;;;;;;;8.77;5.05;;;30.00;89.60;;;;;;4994902;28;20456;-78
2022/09/06 11:30:56;;;;;;;10.18;4.65;;;30.10;90.10;;;;;;5029551;28;20124;-76
2022/09/06 11:33:28;;;;;;;7.97;4.75;;;30.10;89.60;;;;;;5011700;28;20057;-76
2022/09/06 11:36:15;;;;;;;9.88;4.55;;;30.10;89.20;;;;;;5031864;28;20061;-74
2022/09/06 11:38:41;;;;;;;9.00;3.60;;;30.20;89.50;;;;;;5033223;28;20071;-75
2022/09/06 11:41:15;;;;;;;9.80;2.80;;;30.30;87.20;;;;;;5015938;28;20050;-74
2022/09/06 11:43:43;;;;;;;;;;;30.30;87.30;;;;;;5033980;28;20060;-75
2022/09/06 11:46:08;;;;;;;9.82;4.35;;;30.20;87.30;;;;;;5033222;28;19929;-72
2022/09/06 11:49:04;;;;;;;7.45;4.32;;;30.20;87.70;;;;;;5015440;28;20049;-74
2022/09/06 11:51:42;;;;;;;6.07;4.50;;;30.30;88.00;;;;;;5032763;28;20147;-73
2022/09/06 11:54:24;;;;;;;11.10;4.20;;;30.30;88.60;;;;;;5015638;28;20068;-74
2022/09/06 11:57:01;;;;;;;9.48;4.38;;;30.30;87.40;;;;;;5008330;28;20053;-73
2022/09/06 11:59:35;;;;;;;5.93;4.35;;;30.40;87.50;;;;;;5013056;28;20060;-73
2022/09/06 12:02:06;;;;;;;8.20;3.67;;;30.40;87.40;;;;;;5015153;28;20114;-73
2022/09/06 12:05:00;;;;;;;17.38;3.80;;;30.40;86.60;;;;;;5015444;28;20045;-74
2022/09/06 12:07:30;;;;;;;11.05;3.00;;;30.40;86.00;;;;;;5032736;28;20049;-74
2022/09/06 12:10:00;;;;;;;7.30;2.75;;;30.50;85.00;;;;;;5014919;28;20049;-74
2022/09/06 12:12:45;;;;;;;7.68;2.78;;;30.50;85.00;;;;;;4981559;28;20136;-73
2022/09/06 12:15:43;;;;;;;4.85;2.38;;;30.60;84.30;;;;;;5032703;28;20044;-71
2022/09/06 12:18:09;;;;;;;7.47;2.60;;;30.80;84.30;;;;;;5032747;28;20049;-74
2022/09/06 12:20:55;;;;;;;6.72;2.83;;;30.70;83.90;;;;;;5032847;28;20037;-71
2022/09/06 12:23:36;;;;;;;7.47;2.90;;;30.70;84.10;;;;;;5012475;28;20057;-73
2022/09/06 12:26:09;;;;;;;8.13;2.75;;;30.80;83.50;;;;;;5027619;28;20047;-71
2022/09/06 12:28:40;;;;;;;8.30;2.60;;;30.90;83.70;;;;;;5014530;28;20053;-80
2022/09/06 12:31:29;;;;;;;3.78;2.35;;;30.90;83.30;;;;;;5014736;28;20124;-72
2022/09/06 12:33:57;;;;;;;4.82;2.33;;;30.80;82.60;;;;;;5032862;28;20083;-72
2022/09/06 12:36:29;;;;;;;6.70;2.60;;;30.70;83.20;;;;;;5032936;28;20037;-73
2022/09/06 12:38:59;;;;;;;6.53;2.47;;;30.90;83.10;;;;;;5014358;28;20058;-73
2022/09/06 12:41:27;;;;;;;7.22;2.47;;;31.00;82.50;;;;;;5032328;28;20038;-73
2022/09/06 12:43:55;;;;;;;7.13;2.50;;;31.00;83.30;;;;;;5032193;28;20127;-74
2022/09/06 12:46:23;;;;;;;6.78;2.17;;;31.10;83.50;;;;;;5012897;28;20830;-73
2022/09/06 12:49:20;;;;;;;18.42;2.60;;;31.30;83.50;;;;;;5032507;28;20045;-77
2022/09/06 12:51:46;;;;;;;6.43;2.50;;;31.30;82.30;;;;;;4954419;28;20059;-77
2022/09/06 12:54:21;;;;;;;7.47;2.60;;;31.20;82.60;;;;;;4970162;28;20054;-73
2022/09/06 12:56:47;;;;;;;5.25;2.30;;;31.30;82.20;;;;;;4970807;28;20098;-74
2022/09/06 12:59:19;;;;;;;4.50;2.25;;;31.50;82.60;;;;;;4954716;28;20059;-74
2022/09/06 13:02:27;;;;;;;6.95;2.28;;;31.50;82.20;;;;;;4954713;28;20165;-72
2022/09/06 13:05:00;;;;;;;4.47;1.85;;;31.60;81.40;;;;;;4931768;29;20055;-73
2022/09/06 13:07:27;;;;;;;4.63;1.90;;;31.50;80.40;;;;;;4915704;29;20118;-75
2022/09/06 13:09:54;;;;;;;6.93;1.80;;;31.50;80.50;;;;;;4930934;29;20081;-74